sensor_id;sensor_type;location;lat;lon;timestamp;pressure;altitude;pressure_sealevel;temperature;humidity
22389;BME280;11362;48.102;11.620;2023-07-30T00:00:34;94952.28;;;24.88;56.04
22389;BME280;11362;48.102;11.620;2023-07-30T00:03:00;94957.06;;;24.87;56.02
22389;BME280;11362;48.102;11.620;2023-07-30T00:05:25;94965.41;;;24.87;55.97
22389;BME280;11362;48.102;11.620;2023-07-30T00:07:50;94966.63;;;24.86;55.57
22389;BME280;11362;48.102;11.620;2023-07-30T00:10:16;94975.31;;;24.88;55.62
22389;BME280;11362;48.102;11.620;2023-07-30T00:12:41;94969.75;;;24.88;55.51
22389;BME280;11362;48.102;11.620;2023-07-30T00:15:07;94967.31;;;24.90;55.55
22389;BME280;11362;48.102;11.620;2023-07-30T00:20:09;94966.97;;;24.88;55.68
22389;BME280;11362;48.102;11.620;2023-07-30T00:22:34;94976.88;;;24.89;55.87
22389;BME280;11362;48.102;11.620;2023-07-30T00:25:00;94985.19;;;24.89;55.81
22389;BME280;11362;48.102;11.620;2023-07-30T00:27:25;94978.09;;;24.88;55.62
22389;BME280;11362;48.102;11.620;2023-07-30T00:29:50;94987.97;;;24.89;55.59
22389;BME280;11362;48.102;11.620;2023-07-30T00:32:15;94985.63;;;24.88;55.92
22389;BME280;11362;48.102;11.620;2023-07-30T00:34:41;94984.84;;;24.87;56.02
22389;BME280;11362;48.102;11.620;2023-07-30T00:37:06;94985.63;;;24.88;56.17
22389;BME280;11362;48.102;11.620;2023-07-30T00:39:31;94987.97;;;24.89;56.02
22389;BME280;11362;48.102;11.620;2023-07-30T00:41:57;94995.53;;;24.89;56.13
22389;BME280;11362;48.102;11.620;2023-07-30T00:47:20;94988.78;;;24.90;56.15
22389;BME280;11362;48.102;11.620;2023-07-30T00:49:47;94995.53;;;24.89;56.16
22389;BME280;11362;48.102;11.620;2023-07-30T00:52:12;94993.53;;;24.89;56.42
22389;BME280;11362;48.102;11.620;2023-07-30T00:54:39;94993.53;;;24.89;56.15
22389;BME280;11362;48.102;11.620;2023-07-30T00:57:04;94984.84;;;24.87;56.64
22389;BME280;11362;48.102;11.620;2023-07-30T00:59:30;94988.06;;;24.86;56.16
22389;BME280;11362;48.102;11.620;2023-07-30T01:01:57;94986.06;;;24.86;56.32
22389;BME280;11362;48.102;11.620;2023-07-30T01:04:22;94981.75;;;24.85;56.33
22389;BME280;11362;48.102;11.620;2023-07-30T01:06:48;94979.38;;;24.84;56.69
22389;BME280;11362;48.102;11.620;2023-07-30T01:09:13;94973.03;;;24.83;56.44
22389;BME280;11362;48.102;11.620;2023-07-30T01:14:47;94969.56;;;24.79;56.59
22389;BME280;11362;48.102;11.620;2023-07-30T01:17:13;94975.47;;;24.81;56.45
22389;BME280;11362;48.102;11.620;2023-07-30T01:19:38;94979.47;;;24.80;56.76
22389;BME280;11362;48.102;11.620;2023-07-30T01:22:04;94987.81;;;24.80;56.64
22389;BME280;11362;48.102;11.620;2023-07-30T01:24:29;94977.91;;;24.79;56.91
22389;BME280;11362;48.102;11.620;2023-07-30T01:27:03;94985.03;;;24.80;56.57
22389;BME280;11362;48.102;11.620;2023-07-30T01:29:41;94989.34;;;24.81;56.62
22389;BME280;11362;48.102;11.620;2023-07-30T01:32:08;94989.00;;;24.79;56.67
22389;BME280;11362;48.102;11.620;2023-07-30T01:34:36;94985.03;;;24.80;56.77
22389;BME280;11362;48.102;11.620;2023-07-30T01:37:02;94978.66;;;24.80;56.64
22389;BME280;11362;48.102;11.620;2023-07-30T01:42:02;94975.91;;;24.80;56.76
22389;BME280;11362;48.102;11.620;2023-07-30T01:44:27;94983.47;;;24.79;56.71
22389;BME280;11362;48.102;11.620;2023-07-30T01:46:52;94987.00;;;24.80;56.83
22389;BME280;11362;48.102;11.620;2023-07-30T01:49:18;94985.78;;;24.81;56.75
22389;BME280;11362;48.102;11.620;2023-07-30T01:51:43;94982.66;;;24.79;56.89
22389;BME280;11362;48.102;11.620;2023-07-30T01:54:08;94985.03;;;24.80;56.61
22389;BME280;11362;48.102;11.620;2023-07-30T01:56:33;94984.69;;;24.78;56.77
22389;BME280;11362;48.102;11.620;2023-07-30T01:58:59;94974.75;;;24.77;56.67
22389;BME280;11362;48.102;11.620;2023-07-30T02:01:24;94983.47;;;24.79;56.73
22389;BME280;11362;48.102;11.620;2023-07-30T02:03:49;94977.09;;;24.79;56.76
22389;BME280;11362;48.102;11.620;2023-07-30T02:08:47;94975.97;;;24.76;56.46
22389;BME280;11362;48.102;11.620;2023-07-30T02:11:13;94976.34;;;24.78;56.71
22389;BME280;11362;48.102;11.620;2023-07-30T02:13:38;94984.31;;;24.76;57.00
22389;BME280;11362;48.102;11.620;2023-07-30T02:16:03;94983.88;;;24.78;56.96
22389;BME280;11362;48.102;11.620;2023-07-30T02:18:29;94981.91;;;24.78;56.81
22389;BME280;11362;48.102;11.620;2023-07-30T02:20:54;94974.75;;;24.77;56.48
22389;BME280;11362;48.102;11.620;2023-07-30T02:23:19;94981.91;;;24.78;56.59
22389;BME280;11362;48.102;11.620;2023-07-30T02:25:44;94977.53;;;24.77;56.70
22389;BME280;11362;48.102;11.620;2023-07-30T02:28:10;94974.75;;;24.77;56.61
22389;BME280;11362;48.102;11.620;2023-07-30T02:30:35;94978.31;;;24.78;56.58
22389;BME280;11362;48.102;11.620;2023-07-30T02:36:14;94970.00;;;24.78;56.10
22389;BME280;11362;48.102;11.620;2023-07-30T02:38:40;94968.00;;;24.78;56.56
22389;BME280;11362;48.102;11.620;2023-07-30T02:41:05;94963.66;;;24.77;56.29
22389;BME280;11362;48.102;11.620;2023-07-30T02:43:30;94964.88;;;24.76;56.65
22389;BME280;11362;48.102;11.620;2023-07-30T02:45:55;94969.19;;;24.77;56.76
22389;BME280;11362;48.102;11.620;2023-07-30T02:48:21;94958.53;;;24.76;56.35
22389;BME280;11362;48.102;11.620;2023-07-30T02:50:46;94958.53;;;24.76;56.48
22389;BME280;11362;48.102;11.620;2023-07-30T02:53:11;94970.41;;;24.76;56.61
22389;BME280;11362;48.102;11.620;2023-07-30T02:55:36;94975.56;;;24.78;56.57
22389;BME280;11362;48.102;11.620;2023-07-30T02:58:02;94980.31;;;24.77;56.58
22389;BME280;11362;48.102;11.620;2023-07-30T03:03:05;94975.97;;;24.76;56.37
22389;BME280;11362;48.102;11.620;2023-07-30T03:05:30;94973.19;;;24.76;56.53
22389;BME280;11362;48.102;11.620;2023-07-30T03:07:55;94979.53;;;24.77;56.34
22389;BME280;11362;48.102;11.620;2023-07-30T03:10:20;94984.31;;;24.76;56.45
22389;BME280;11362;48.102;11.620;2023-07-30T03:12:46;94985.88;;;24.77;56.21
22389;BME280;11362;48.102;11.620;2023-07-30T03:15:11;94985.88;;;24.77;56.38
22389;BME280;11362;48.102;11.620;2023-07-30T03:17:36;94987.09;;;24.76;56.08
22389;BME280;11362;48.102;11.620;2023-07-30T03:20:02;94992.22;;;24.78;56.12
22389;BME280;11362;48.102;11.620;2023-07-30T03:22:27;95004.13;;;24.78;56.16
22389;BME280;11362;48.102;11.620;2023-07-30T03:24:53;95019.19;;;24.77;56.51
22389;BME280;11362;48.102;11.620;2023-07-30T03:29:16;95017.63;;;24.76;56.51
22389;BME280;11362;48.102;11.620;2023-07-30T03:31:42;95011.66;;;24.78;56.15
22389;BME280;11362;48.102;11.620;2023-07-30T03:34:07;95014.88;;;24.76;56.26
22389;BME280;11362;48.102;11.620;2023-07-30T03:36:32;95018.00;;;24.78;56.39
22389;BME280;11362;48.102;11.620;2023-07-30T03:38:58;95014.03;;;24.79;56.37
22389;BME280;11362;48.102;11.620;2023-07-30T03:41:23;95009.69;;;24.78;56.30
22389;BME280;11362;48.102;11.620;2023-07-30T03:43:49;95007.25;;;24.80;56.36
22389;BME280;11362;48.102;11.620;2023-07-30T03:46:14;95010.44;;;24.79;56.28
22389;BME280;11362;48.102;11.620;2023-07-30T03:48:39;95012.47;;;24.78;56.24
22389;BME280;11362;48.102;11.620;2023-07-30T03:51:04;95014.44;;;24.78;56.42
22389;BME280;11362;48.102;11.620;2023-07-30T03:56:27;95019.19;;;24.77;56.18
22389;BME280;11362;48.102;11.620;2023-07-30T03:58:53;95022.84;;;24.74;56.33
22389;BME280;11362;48.102;11.620;2023-07-30T04:01:18;95019.66;;;24.76;55.99
22389;BME280;11362;48.102;11.620;2023-07-30T04:03:43;95021.63;;;24.75;56.28
22389;BME280;11362;48.102;11.620;2023-07-30T04:06:09;95029.19;;;24.75;56.24
22389;BME280;11362;48.102;11.620;2023-07-30T04:08:34;95025.63;;;24.74;56.44
22389;BME280;11362;48.102;11.620;2023-07-30T04:10:59;95027.63;;;24.74;56.20
22389;BME280;11362;48.102;11.620;2023-07-30T04:13:24;95027.19;;;24.75;56.36
22389;BME280;11362;48.102;11.620;2023-07-30T04:15:50;95027.97;;;24.76;56.13
22389;BME280;11362;48.102;11.620;2023-07-30T04:18:15;95031.09;;;24.78;56.40
22389;BME280;11362;48.102;11.620;2023-07-30T04:23:37;95021.22;;;24.77;56.20
22389;BME280;11362;48.102;11.620;2023-07-30T04:26:02;95028.75;;;24.76;56.21
22389;BME280;11362;48.102;11.620;2023-07-30T04:28:27;95029.19;;;24.75;56.31
22389;BME280;11362;48.102;11.620;2023-07-30T04:30:53;95033.53;;;24.76;55.83
22389;BME280;11362;48.102;11.620;2023-07-30T04:33:18;95041.88;;;24.76;56.03
22389;BME280;11362;48.102;11.620;2023-07-30T04:35:43;95040.66;;;24.77;55.91
22389;BME280;11362;48.102;11.620;2023-07-30T04:38:08;95041.00;;;24.79;55.81
22389;BME280;11362;48.102;11.620;2023-07-30T04:40:34;95048.19;;;24.76;56.12
22389;BME280;11362;48.102;11.620;2023-07-30T04:42:59;95038.31;;;24.75;56.10
22389;BME280;11362;48.102;11.620;2023-07-30T04:45:24;95046.63;;;24.75;55.95
22389;BME280;11362;48.102;11.620;2023-07-30T04:47:49;95057.75;;;24.75;56.04
22389;BME280;11362;48.102;11.620;2023-07-30T04:50:15;95050.22;;;24.76;56.05
22389;BME280;11362;48.102;11.620;2023-07-30T04:55:12;95052.19;;;24.75;55.97
22389;BME280;11362;48.102;11.620;2023-07-30T04:57:38;95047.84;;;24.74;56.22
22389;BME280;11362;48.102;11.620;2023-07-30T05:00:03;95048.28;;;24.73;56.03
22389;BME280;11362;48.102;11.620;2023-07-30T05:02:29;95060.94;;;24.74;55.87
22389;BME280;11362;48.102;11.620;2023-07-30T05:04:54;95062.16;;;24.73;56.16
22389;BME280;11362;48.102;11.620;2023-07-30T05:07:20;95062.16;;;24.73;56.04
22389;BME280;11362;48.102;11.620;2023-07-30T05:09:45;95059.75;;;24.75;55.95
22389;BME280;11362;48.102;11.620;2023-07-30T05:12:10;95067.28;;;24.74;55.95
22389;BME280;11362;48.102;11.620;2023-07-30T05:14:36;95078.75;;;24.76;56.03
22389;BME280;11362;48.102;11.620;2023-07-30T05:17:01;95075.56;;;24.78;55.73
22389;BME280;11362;48.102;11.620;2023-07-30T05:21:58;95073.19;;;24.76;55.92
22389;BME280;11362;48.102;11.620;2023-07-30T05:24:24;95069.22;;;24.77;55.75
22389;BME280;11362;48.102;11.620;2023-07-30T05:26:49;95070.34;;;24.80;55.53
22389;BME280;11362;48.102;11.620;2023-07-30T05:29:14;95067.56;;;24.80;55.57
22389;BME280;11362;48.102;11.620;2023-07-30T05:31:40;95077.03;;;24.82;55.39
22389;BME280;11362;48.102;11.620;2023-07-30T05:34:05;95086.25;;;24.79;55.69
22389;BME280;11362;48.102;11.620;2023-07-30T05:36:30;95079.47;;;24.80;55.69
22389;BME280;11362;48.102;11.620;2023-07-30T05:38:56;95084.22;;;24.80;55.39
22389;BME280;11362;48.102;11.620;2023-07-30T05:41:21;95096.16;;;24.80;55.45
22389;BME280;11362;48.102;11.620;2023-07-30T05:43:46;95089.38;;;24.81;55.72
22389;BME280;11362;48.102;11.620;2023-07-30T05:48:55;95089.44;;;24.78;55.75
22389;BME280;11362;48.102;11.620;2023-07-30T05:51:20;95086.25;;;24.79;55.94
22389;BME280;11362;48.102;11.620;2023-07-30T05:53:46;95090.59;;;24.80;55.68
22389;BME280;11362;48.102;11.620;2023-07-30T05:56:11;95076.13;;;24.89;55.53
22389;BME280;11362;48.102;11.620;2023-07-30T05:58:36;95090.44;;;24.87;55.55
22389;BME280;11362;48.102;11.620;2023-07-30T06:01:01;95084.09;;;24.87;55.53
22389;BME280;11362;48.102;11.620;2023-07-30T06:03:27;95086.16;;;24.83;55.62
22389;BME280;11362;48.102;11.620;2023-07-30T06:05:52;95087.38;;;24.82;55.65
22389;BME280;11362;48.102;11.620;2023-07-30T06:08:17;95088.56;;;24.81;55.82
22389;BME280;11362;48.102;11.620;2023-07-30T06:10:43;95088.94;;;24.83;55.54
22389;BME280;11362;48.102;11.620;2023-07-30T06:16:22;95089.38;;;24.81;55.70
22389;BME280;11362;48.102;11.620;2023-07-30T06:18:47;95092.94;;;24.82;55.66
22389;BME280;11362;48.102;11.620;2023-07-30T06:21:13;95090.94;;;24.82;55.21
22389;BME280;11362;48.102;11.620;2023-07-30T06:23:38;95090.94;;;24.82;55.30
22389;BME280;11362;48.102;11.620;2023-07-30T06:26:03;95090.44;;;24.87;55.68
22389;BME280;11362;48.102;11.620;2023-07-30T06:28:29;95097.47;;;24.92;56.28
22389;BME280;11362;48.102;11.620;2023-07-30T06:30:54;95091.84;;;24.95;56.08
22389;BME280;11362;48.102;11.620;2023-07-30T06:33:19;95087.81;;;25.16;55.61
22389;BME280;11362;48.102;11.620;2023-07-30T06:35:45;95094.66;;;25.11;55.68
22389;BME280;11362;48.102;11.620;2023-07-30T06:38:10;95097.84;;;25.10;55.93
22389;BME280;11362;48.102;11.620;2023-07-30T06:43:07;95092.91;;;25.01;56.63
22389;BME280;11362;48.102;11.620;2023-07-30T06:45:33;95099.69;;;25.00;56.68
22389;BME280;11362;48.102;11.620;2023-07-30T06:47:58;95097.66;;;25.01;56.35
22389;BME280;11362;48.102;11.620;2023-07-30T06:50:23;95098.09;;;24.99;56.40
22389;BME280;11362;48.102;11.620;2023-07-30T06:52:49;95101.31;;;24.98;55.41
22389;BME280;11362;48.102;11.620;2023-07-30T06:55:14;95098.97;;;24.96;54.42
22389;BME280;11362;48.102;11.620;2023-07-30T06:57:39;95094.84;;;24.85;53.28
22389;BME280;11362;48.102;11.620;2023-07-30T07:00:05;95094.78;;;24.88;53.34
22389;BME280;11362;48.102;11.620;2023-07-30T07:02:31;95095.84;;;24.94;54.27
22389;BME280;11362;48.102;11.620;2023-07-30T07:04:56;95102.31;;;25.07;54.09
22389;BME280;11362;48.102;11.620;2023-07-30T07:09:03;95108.13;;;25.13;54.10
22389;BME280;11362;48.102;11.620;2023-07-30T07:11:29;95103.34;;;25.13;54.18
22389;BME280;11362;48.102;11.620;2023-07-30T07:13:54;95110.34;;;25.21;54.21
22389;BME280;11362;48.102;11.620;2023-07-30T07:16:19;95114.69;;;25.22;54.07
22389;BME280;11362;48.102;11.620;2023-07-30T07:18:44;95115.97;;;25.18;53.81
22389;BME280;11362;48.102;11.620;2023-07-30T07:21:10;95116.72;;;25.18;53.74
22389;BME280;11362;48.102;11.620;2023-07-30T07:23:36;95114.84;;;25.15;53.79
22389;BME280;11362;48.102;11.620;2023-07-30T07:26:01;95112.69;;;25.23;53.55
22389;BME280;11362;48.102;11.620;2023-07-30T07:28:26;95126.63;;;25.19;53.58
22389;BME280;11362;48.102;11.620;2023-07-30T07:30:51;95115.25;;;25.14;53.84
22389;BME280;11362;48.102;11.620;2023-07-30T07:36:14;95122.44;;;25.11;53.83
22389;BME280;11362;48.102;11.620;2023-07-30T07:38:39;95109.78;;;25.10;53.67
22389;BME280;11362;48.102;11.620;2023-07-30T07:41:05;95122.78;;;25.13;53.29
22389;BME280;11362;48.102;11.620;2023-07-30T07:43:30;95119.31;;;25.09;53.49
22389;BME280;11362;48.102;11.620;2023-07-30T07:45:55;95134.00;;;25.10;53.47
22389;BME280;11362;48.102;11.620;2023-07-30T07:48:21;95134.44;;;25.08;53.68
22389;BME280;11362;48.102;11.620;2023-07-30T07:50:46;95138.44;;;25.07;53.37
22389;BME280;11362;48.102;11.620;2023-07-30T07:53:12;95124.00;;;25.12;53.41
22389;BME280;11362;48.102;11.620;2023-07-30T07:55:37;95120.88;;;25.10;53.11
22389;BME280;11362;48.102;11.620;2023-07-30T07:58:02;95124.09;;;25.09;53.31
22389;BME280;11362;48.102;11.620;2023-07-30T08:03:25;95129.19;;;24.94;52.48
22389;BME280;11362;48.102;11.620;2023-07-30T08:05:50;95135.88;;;24.97;52.61
22389;BME280;11362;48.102;11.620;2023-07-30T08:08:16;95118.16;;;24.91;50.88
22389;BME280;11362;48.102;11.620;2023-07-30T08:10:41;95113.78;;;24.70;50.14
22389;BME280;11362;48.102;11.620;2023-07-30T08:13:06;95117.16;;;24.62;49.99
22389;BME280;11362;48.102;11.620;2023-07-30T08:15:32;95113.25;;;24.59;49.71
22389;BME280;11362;48.102;11.620;2023-07-30T08:17:57;95111.72;;;24.55;49.30
22389;BME280;11362;48.102;11.620;2023-07-30T08:20:23;95131.22;;;24.51;49.44
22389;BME280;11362;48.102;11.620;2023-07-30T08:22:48;95131.13;;;24.58;49.63
22389;BME280;11362;48.102;11.620;2023-07-30T08:25:13;95133.69;;;24.69;49.74
22389;BME280;11362;48.102;11.620;2023-07-30T08:30:22;95112.97;;;24.73;49.50
22389;BME280;11362;48.102;11.620;2023-07-30T08:32:47;95112.59;;;24.71;50.18
22389;BME280;11362;48.102;11.620;2023-07-30T08:35:12;95099.84;;;24.74;50.37
22389;BME280;11362;48.102;11.620;2023-07-30T08:37:38;95109.69;;;24.78;50.18
22389;BME280;11362;48.102;11.620;2023-07-30T08:40:03;95100.81;;;24.83;50.44
22389;BME280;11362;48.102;11.620;2023-07-30T08:42:29;95091.72;;;24.83;50.92
22389;BME280;11362;48.102;11.620;2023-07-30T08:44:54;95106.38;;;24.83;51.24
22389;BME280;11362;48.102;11.620;2023-07-30T08:47:20;95102.38;;;24.84;51.11
22389;BME280;11362;48.102;11.620;2023-07-30T08:49:45;95109.47;;;24.89;50.99
22389;BME280;11362;48.102;11.620;2023-07-30T08:54:48;95098.34;;;24.89;51.53
22389;BME280;11362;48.102;11.620;2023-07-30T08:57:16;95106.22;;;24.90;51.54
22389;BME280;11362;48.102;11.620;2023-07-30T08:59:49;95096.97;;;24.97;51.28
22389;BME280;11362;48.102;11.620;2023-07-30T09:02:30;95088.72;;;24.93;50.93
22389;BME280;11362;48.102;11.620;2023-07-30T09:04:58;95081.94;;;24.94;51.13
22389;BME280;11362;48.102;11.620;2023-07-30T09:07:25;95073.88;;;25.00;51.10
22389;BME280;11362;48.102;11.620;2023-07-30T09:09:50;95075.25;;;24.92;51.06
22389;BME280;11362;48.102;11.620;2023-07-30T09:12:16;95073.63;;;24.94;50.81
22389;BME280;11362;48.102;11.620;2023-07-30T09:14:42;95081.06;;;24.97;50.97
22389;BME280;11362;48.102;11.620;2023-07-30T09:17:07;95083.09;;;24.97;51.43
22389;BME280;11362;48.102;11.620;2023-07-30T09:21:45;95019.50;;;24.99;51.42
22389;BME280;11362;48.102;11.620;2023-07-30T09:24:10;95063.19;;;24.98;51.52
22389;BME280;11362;48.102;11.620;2023-07-30T09:26:46;95082.63;;;24.98;51.49
22389;BME280;11362;48.102;11.620;2023-07-30T09:29:11;95061.63;;;24.97;51.64
22389;BME280;11362;48.102;11.620;2023-07-30T09:31:50;95059.34;;;24.92;51.91
22389;BME280;11362;48.102;11.620;2023-07-30T09:34:18;95075.88;;;24.99;51.61
22389;BME280;11362;48.102;11.620;2023-07-30T09:36:44;95029.41;;;25.00;51.92
22389;BME280;11362;48.102;11.620;2023-07-30T09:39:26;95070.31;;;24.99;51.83
22389;BME280;11362;48.102;11.620;2023-07-30T09:41:53;95058.41;;;24.99;51.50
22389;BME280;11362;48.102;11.620;2023-07-30T09:44:24;95071.91;;;25.00;51.80
22389;BME280;11362;48.102;11.620;2023-07-30T09:48:11;95063.19;;;24.98;52.05
22389;BME280;11362;48.102;11.620;2023-07-30T09:50:36;95061.97;;;24.99;51.83
22389;BME280;11362;48.102;11.620;2023-07-30T09:53:03;95065.88;;;25.02;51.74
22389;BME280;11362;48.102;11.620;2023-07-30T09:55:28;95058.34;;;25.02;52.01
22389;BME280;11362;48.102;11.620;2023-07-30T09:57:54;95064.75;;;24.99;52.11
22389;BME280;11362;48.102;11.620;2023-07-30T10:00:20;95055.22;;;25.00;52.00
22389;BME280;11362;48.102;11.620;2023-07-30T10:02:47;95064.66;;;25.03;52.06
22389;BME280;11362;48.102;11.620;2023-07-30T10:05:18;95064.66;;;25.03;51.93
22389;BME280;11362;48.102;11.620;2023-07-30T10:08:00;95044.09;;;25.00;51.83
22389;BME280;11362;48.102;11.620;2023-07-30T10:10:28;95062.34;;;25.01;52.14
22389;BME280;11362;48.102;11.620;2023-07-30T10:15:26;95075.09;;;24.99;51.94
22389;BME280;11362;48.102;11.620;2023-07-30T10:17:52;95069.19;;;24.97;52.35
22389;BME280;11362;48.102;11.620;2023-07-30T10:20:28;95049.75;;;24.97;52.29
22389;BME280;11362;48.102;11.620;2023-07-30T10:22:54;95083.84;;;24.97;52.02
22389;BME280;11362;48.102;11.620;2023-07-30T10:25:22;95075.50;;;24.97;51.84
22389;BME280;11362;48.102;11.620;2023-07-30T10:27:50;95097.31;;;24.99;52.03
22389;BME280;11362;48.102;11.620;2023-07-30T10:30:19;95106.88;;;24.98;52.03
22389;BME280;11362;48.102;11.620;2023-07-30T10:33:06;95103.66;;;24.99;51.99
22389;BME280;11362;48.102;11.620;2023-07-30T10:35:42;95112.34;;;25.01;52.22
22389;BME280;11362;48.102;11.620;2023-07-30T10:41:11;95097.94;;;25.06;51.90
22389;BME280;11362;48.102;11.620;2023-07-30T10:43:46;95093.16;;;25.07;52.15
22389;BME280;11362;48.102;11.620;2023-07-30T10:46:13;95093.16;;;25.07;52.17
22389;BME280;11362;48.102;11.620;2023-07-30T10:48:42;95086.81;;;25.06;52.18
22389;BME280;11362;48.102;11.620;2023-07-30T10:51:12;95080.50;;;25.06;52.20
22389;BME280;11362;48.102;11.620;2023-07-30T10:53:38;95072.91;;;25.06;51.93
22389;BME280;11362;48.102;11.620;2023-07-30T10:56:04;95069.47;;;25.02;52.29
22389;BME280;11362;48.102;11.620;2023-07-30T10:58:31;95078.94;;;25.05;51.96
22389;BME280;11362;48.102;11.620;2023-07-30T11:00:56;95072.59;;;25.04;51.88
22389;BME280;11362;48.102;11.620;2023-07-30T11:03:26;95064.59;;;25.06;52.13
22389;BME280;11362;48.102;11.620;2023-07-30T11:10:58;95043.06;;;25.10;51.92
22389;BME280;11362;48.102;11.620;2023-07-30T11:13:24;95070.06;;;25.10;51.87
22389;BME280;11362;48.102;11.620;2023-07-30T11:15:49;95064.97;;;25.08;51.99
22389;BME280;11362;48.102;11.620;2023-07-30T11:18:14;95071.56;;;25.14;51.71
22389;BME280;11362;48.102;11.620;2023-07-30T11:20:40;95062.88;;;25.12;52.19
22389;BME280;11362;48.102;11.620;2023-07-30T11:23:19;95063.66;;;25.13;51.96
22389;BME280;11362;48.102;11.620;2023-07-30T11:25:50;95069.63;;;25.11;52.06
22389;BME280;11362;48.102;11.620;2023-07-30T11:30:53;95077.97;;;25.11;51.92
22389;BME280;11362;48.102;11.620;2023-07-30T11:35:56;95076.84;;;25.09;51.92
22389;BME280;11362;48.102;11.620;2023-07-30T11:38:25;95070.50;;;25.08;51.96
22389;BME280;11362;48.102;11.620;2023-07-30T11:40:55;95062.59;;;25.07;51.89
22389;BME280;11362;48.102;11.620;2023-07-30T11:43:21;95064.59;;;25.06;51.93
22389;BME280;11362;48.102;11.620;2023-07-30T11:45:47;95070.16;;;25.06;51.91
22389;BME280;11362;48.102;11.620;2023-07-30T11:48:12;95077.28;;;25.07;51.80
22389;BME280;11362;48.102;11.620;2023-07-30T11:50:45;95057.47;;;25.05;52.10
22389;BME280;11362;48.102;11.620;2023-07-30T11:53:11;95059.56;;;25.01;51.85
22389;BME280;11362;48.102;11.620;2023-07-30T11:55:40;95070.22;;;25.03;51.93
22389;BME280;11362;48.102;11.620;2023-07-30T11:58:06;95091.69;;;25.02;51.72
22389;BME280;11362;48.102;11.620;2023-07-30T12:03:37;95110.72;;;25.04;51.83
22389;BME280;11362;48.102;11.620;2023-07-30T12:06:05;95103.16;;;25.04;51.80
22389;BME280;11362;48.102;11.620;2023-07-30T12:08:33;95097.16;;;25.06;51.87
22389;BME280;11362;48.102;11.620;2023-07-30T12:11:03;95093.16;;;25.07;51.85
22389;BME280;11362;48.102;11.620;2023-07-30T12:13:28;95091.53;;;25.09;51.84
22389;BME280;11362;48.102;11.620;2023-07-30T12:15:55;95099.44;;;25.11;51.62
22389;BME280;11362;48.102;11.620;2023-07-30T12:18:21;95089.09;;;25.11;51.81
22389;BME280;11362;48.102;11.620;2023-07-30T12:20:47;95100.22;;;25.11;51.92
22389;BME280;11362;48.102;11.620;2023-07-30T12:23:13;95089.88;;;25.12;51.68
22389;BME280;11362;48.102;11.620;2023-07-30T12:25:39;95095.88;;;25.10;51.66
22389;BME280;11362;48.102;11.620;2023-07-30T12:30:33;95096.66;;;25.11;51.68
22389;BME280;11362;48.102;11.620;2023-07-30T12:32:59;95096.66;;;25.11;51.83
22389;BME280;11362;48.102;11.620;2023-07-30T12:35:24;95103.34;;;25.13;51.93
22389;BME280;11362;48.102;11.620;2023-07-30T12:37:49;95114.47;;;25.13;51.65
22389;BME280;11362;48.102;11.620;2023-07-30T12:40:16;95112.06;;;25.15;51.54
22389;BME280;11362;48.102;11.620;2023-07-30T12:42:41;95109.63;;;25.17;51.64
22389;BME280;11362;48.102;11.620;2023-07-30T12:45:07;95113.63;;;25.16;51.56
22389;BME280;11362;48.102;11.620;2023-07-30T12:47:32;95114.84;;;25.15;51.60
22389;BME280;11362;48.102;11.620;2023-07-30T12:49:57;95109.69;;;25.14;51.60
22389;BME280;11362;48.102;11.620;2023-07-30T12:52:23;95130.38;;;25.13;51.91
22389;BME280;11362;48.102;11.620;2023-07-30T12:57:44;95111.34;;;25.11;51.86
22389;BME280;11362;48.102;11.620;2023-07-30T13:00:10;95112.97;;;25.09;51.77
22389;BME280;11362;48.102;11.620;2023-07-30T13:02:36;95112.56;;;25.10;51.97
22389;BME280;11362;48.102;11.620;2023-07-30T13:05:01;95107.00;;;25.10;51.80
22389;BME280;11362;48.102;11.620;2023-07-30T13:07:27;95121.22;;;25.12;51.94
22389;BME280;11362;48.102;11.620;2023-07-30T13:10:03;95118.44;;;25.12;51.70
22389;BME280;11362;48.102;11.620;2023-07-30T13:12:28;95111.25;;;25.15;51.69
22389;BME280;11362;48.102;11.620;2023-07-30T13:14:54;95118.81;;;25.14;51.87
22389;BME280;11362;48.102;11.620;2023-07-30T13:17:19;95104.94;;;25.14;51.84
22389;BME280;11362;48.102;11.620;2023-07-30T13:19:44;95108.81;;;25.17;51.70
22389;BME280;11362;48.102;11.620;2023-07-30T13:23:40;95112.31;;;25.21;51.89
22389;BME280;11362;48.102;11.620;2023-07-30T13:26:05;95114.31;;;25.20;51.79
22389;BME280;11362;48.102;11.620;2023-07-30T13:28:31;95118.66;;;25.21;51.77
22389;BME280;11362;48.102;11.620;2023-07-30T13:30:56;95110.75;;;25.20;51.46
22389;BME280;11362;48.102;11.620;2023-07-30T13:33:21;95112.81;;;25.16;51.90
22389;BME280;11362;48.102;11.620;2023-07-30T13:35:46;95118.03;;;25.14;51.62
22389;BME280;11362;48.102;11.620;2023-07-30T13:38:12;95128.00;;;25.11;51.90
22389;BME280;11362;48.102;11.620;2023-07-30T13:40:37;95120.09;;;25.10;51.80
22389;BME280;11362;48.102;11.620;2023-07-30T13:43:02;95137.66;;;25.07;51.98
22389;BME280;11362;48.102;11.620;2023-07-30T13:47:41;95141.22;;;25.07;52.05
22389;BME280;11362;48.102;11.620;2023-07-30T13:50:06;95162.66;;;25.07;51.71
22389;BME280;11362;48.102;11.620;2023-07-30T13:52:32;95183.75;;;25.04;52.02
22389;BME280;11362;48.102;11.620;2023-07-30T13:54:57;95209.56;;;25.05;51.70
22389;BME280;11362;48.102;11.620;2023-07-30T13:57:23;95205.56;;;25.06;51.83
22389;BME280;11362;48.102;11.620;2023-07-30T13:59:49;95191.59;;;25.09;51.68
22389;BME280;11362;48.102;11.620;2023-07-30T14:02:14;95197.00;;;25.16;51.93
22389;BME280;11362;48.102;11.620;2023-07-30T14:04:39;95196.13;;;25.19;51.78
22389;BME280;11362;48.102;11.620;2023-07-30T14:07:05;95196.50;;;25.21;51.64
22389;BME280;11362;48.102;11.620;2023-07-30T14:11:52;95198.88;;;25.23;51.66